createdAt,value
2018-05-06T00:00:57.550Z,0
2018-05-06T00:01:57.518Z,0
2018-05-06T00:02:57.590Z,0
2018-05-06T00:03:57.658Z,0
2018-05-06T00:04:57.305Z,0
2018-05-06T00:05:57.647Z,0
2018-05-06T00:06:57.374Z,0
2018-05-06T00:07:57.713Z,0
2018-05-06T00:08:57.702Z,0
2018-05-06T00:09:57.713Z,0
2018-05-06T00:10:57.715Z,0
2018-05-06T00:11:57.755Z,0
2018-05-06T00:12:57.208Z,0
2018-05-06T00:13:57.495Z,0
2018-05-06T00:14:57.252Z,0
2018-05-06T00:15:57.550Z,0
2018-05-06T00:16:57.548Z,0
2018-05-06T00:17:57.363Z,0
2018-05-06T00:18:57.715Z,0
2018-05-06T00:19:57.622Z,0
2018-05-06T00:20:57.923Z,0
2018-05-06T00:21:57.673Z,0
2018-05-06T00:22:57.684Z,0
2018-05-06T00:23:57.996Z,0
2018-05-06T00:24:57.191Z,0
2018-05-06T00:25:57.740Z,0
2018-05-06T00:26:58.040Z,0
2018-05-06T00:27:57.525Z,0
2018-05-06T00:28:57.807Z,0
2018-05-06T00:29:58.083Z,0
2018-05-06T00:30:57.861Z,0
2018-05-06T00:31:58.162Z,0
2018-05-06T00:32:57.906Z,0
2018-05-06T00:33:58.175Z,0
2018-05-06T00:34:58.187Z,0
2018-05-06T00:35:58.225Z,0
2018-05-06T00:36:57.961Z,0
2018-05-06T00:37:57.998Z,0
2018-05-06T00:38:58.331Z,0
2018-05-06T00:39:58.373Z,0
2018-05-06T00:40:58.348Z,0
2018-05-06T00:41:58.349Z,0
2018-05-06T00:42:58.373Z,0
2018-05-06T00:43:58.426Z,0
2018-05-06T00:44:58.384Z,0
2018-05-06T00:45:58.418Z,0
2018-05-06T00:46:58.417Z,0
2018-05-06T00:47:58.484Z,0
2018-05-06T00:48:58.197Z,0
2018-05-06T00:49:57.937Z,0
2018-05-06T00:50:58.244Z,0
2018-05-06T00:51:58.234Z,0
2018-05-06T00:52:58.275Z,0
2018-05-06T00:53:58.356Z,0
2018-05-06T00:54:58.321Z,0
2018-05-06T00:55:58.334Z,0
2018-05-06T00:56:58.361Z,0
2018-05-06T00:57:58.645Z,0
2018-05-06T00:58:58.443Z,0
2018-05-06T00:59:58.412Z,0
2018-05-06T01:00:58.154Z,0
2018-05-06T01:01:58.465Z,0
2018-05-06T01:02:58.756Z,0
2018-05-06T01:03:58.295Z,0
2018-05-06T01:04:58.839Z,0
2018-05-06T01:05:58.271Z,0
2018-05-06T01:06:58.834Z,0
2018-05-06T01:07:58.578Z,0
2018-05-06T01:08:58.582Z,0
2018-05-06T01:09:58.901Z,0
2018-05-06T01:10:58.904Z,0
2018-05-06T01:11:58.666Z,0
2018-05-06T01:12:58.684Z,0
2018-05-06T01:13:59.038Z,0
2018-05-06T01:14:58.717Z,0
2018-05-06T01:15:58.993Z,0
2018-05-06T01:16:59.017Z,0
2018-05-06T01:17:59.043Z,0
2018-05-06T01:18:58.778Z,0
2018-05-06T01:19:58.786Z,0
2018-05-06T01:20:58.826Z,0
2018-05-06T01:21:58.552Z,0
2018-05-06T01:22:59.124Z,0
2018-05-06T01:23:58.879Z,0
2018-05-06T01:24:59.204Z,0
2018-05-06T01:25:59.207Z,0
2018-05-06T01:26:59.196Z,0
2018-05-06T01:27:59.252Z,0
2018-05-06T01:28:58.960Z,0
2018-05-06T01:29:59.294Z,0
2018-05-06T01:30:59.291Z,0
2018-05-06T01:31:59.323Z,0
2018-05-06T01:32:58.761Z,0
2018-05-06T01:33:59.368Z,0
2018-05-06T01:34:59.094Z,0
2018-05-06T01:35:59.377Z,0
2018-05-06T01:36:59.415Z,0
2018-05-06T01:37:59.437Z,0
2018-05-06T01:38:59.441Z,0
2018-05-06T01:39:59.365Z,0
2018-05-06T01:40:59.474Z,0
2018-05-06T01:41:59.496Z,0
2018-05-06T01:42:59.507Z,0
2018-05-06T01:43:59.325Z,0
2018-05-06T01:44:59.288Z,0
2018-05-06T01:45:59.319Z,0
2018-05-06T01:46:59.062Z,0
2018-05-06T01:47:59.348Z,0
2018-05-06T01:48:59.650Z,0
2018-05-06T01:49:59.660Z,0
2018-05-06T01:50:59.693Z,0
2018-05-06T01:51:59.694Z,0
2018-05-06T01:52:59.454Z,0
2018-05-06T01:53:59.554Z,0
2018-05-06T01:54:59.483Z,0
2018-05-06T01:55:59.491Z,0
2018-05-06T01:56:59.540Z,0
2018-05-06T01:57:59.801Z,0
2018-05-06T01:58:59.840Z,0
2018-05-06T01:59:59.849Z,0
2018-05-06T02:01:00.105Z,0
2018-05-06T02:01:59.902Z,0
2018-05-06T02:02:59.928Z,0
2018-05-06T02:03:59.990Z,0
2018-05-06T02:04:59.683Z,0
2018-05-06T02:05:59.963Z,0
2018-05-06T02:07:00.006Z,0
2018-05-06T02:07:59.423Z,0
2018-05-06T02:08:59.792Z,0
2018-05-06T02:10:00.045Z,0
2018-05-06T02:11:00.077Z,0
2018-05-06T02:11:59.801Z,0
2018-05-06T02:12:59.543Z,0
2018-05-06T02:13:59.873Z,0
2018-05-06T02:14:59.563Z,0
2018-05-06T02:15:59.881Z,0
2018-05-06T02:17:00.272Z,0
2018-05-06T02:17:59.899Z,0
2018-05-06T02:18:59.991Z,0
2018-05-06T02:20:00.234Z,0
2018-05-06T02:20:59.706Z,0
2018-05-06T02:22:00.002Z,0
2018-05-06T02:23:00.041Z,0
2018-05-06T02:24:00.162Z,0
2018-05-06T02:25:00.058Z,0
2018-05-06T02:26:00.406Z,0
2018-05-06T02:27:00.076Z,0
2018-05-06T02:27:59.805Z,0
2018-05-06T02:29:00.104Z,0
2018-05-06T02:30:00.158Z,0
2018-05-06T02:31:00.485Z,0
2018-05-06T02:32:00.524Z,0
2018-05-06T02:33:00.225Z,0
2018-05-06T02:34:00.551Z,0
2018-05-06T02:35:00.566Z,0
2018-05-06T02:36:00.552Z,0
2018-05-06T02:37:00.274Z,0
2018-05-06T02:38:00.550Z,0
2018-05-06T02:39:00.594Z,0
2018-05-06T02:40:00.325Z,0
2018-05-06T02:41:00.624Z,0
2018-05-06T02:42:00.659Z,0
2018-05-06T02:43:00.383Z,0
2018-05-06T02:44:00.704Z,0
2018-05-06T02:45:00.736Z,0
2018-05-06T02:46:00.443Z,0
2018-05-06T02:47:00.755Z,0
2018-05-06T02:48:00.834Z,0
2018-05-06T02:49:00.798Z,0
2018-05-06T02:50:00.521Z,0
2018-05-06T02:51:00.836Z,0
2018-05-06T02:52:00.894Z,0
2018-05-06T02:53:00.860Z,0
2018-05-06T02:54:00.906Z,0
2018-05-06T02:55:00.874Z,0
2018-05-06T02:56:00.894Z,0
2018-05-06T02:57:00.928Z,0
2018-05-06T02:58:00.677Z,0
2018-05-06T02:59:00.400Z,0
2018-05-06T03:00:01.578Z,0
2018-05-06T03:01:00.436Z,0
2018-05-06T03:02:00.737Z,0
2018-05-06T03:03:01.152Z,0
2018-05-06T03:04:00.485Z,0
2018-05-06T03:05:01.272Z,0
2018-05-06T03:06:01.083Z,0
2018-05-06T03:07:01.127Z,0
2018-05-06T03:08:01.144Z,0
2018-05-06T03:09:00.852Z,0
2018-05-06T03:10:01.157Z,0
2018-05-06T03:11:00.954Z,0
2018-05-06T03:12:01.196Z,4
2018-05-06T03:13:01.210Z,4
2018-05-06T03:14:01.255Z,4
2018-05-06T03:15:00.987Z,0
2018-05-06T03:16:01.300Z,4
2018-05-06T03:17:01.286Z,4
2018-05-06T03:18:01.018Z,4
2018-05-06T03:19:01.029Z,4
2018-05-06T03:20:00.769Z,4
2018-05-06T03:21:01.081Z,8
2018-05-06T03:22:01.100Z,4
2018-05-06T03:23:01.122Z,8
2018-05-06T03:24:01.414Z,4
2018-05-06T03:25:01.198Z,8
2018-05-06T03:26:01.163Z,12
2018-05-06T03:27:01.212Z,12
2018-05-06T03:28:01.235Z,8
2018-05-06T03:29:01.481Z,12
2018-05-06T03:30:01.537Z,12
2018-05-06T03:31:01.597Z,16
2018-05-06T03:32:01.603Z,16
2018-05-06T03:33:01.603Z,16
2018-05-06T03:34:01.616Z,24
2018-05-06T03:35:01.602Z,24
2018-05-06T03:36:01.621Z,24
2018-05-06T03:37:01.676Z,24
2018-05-06T03:38:01.684Z,32
2018-05-06T03:39:01.685Z,32
2018-05-06T03:40:01.428Z,32
2018-05-06T03:41:01.456Z,36
2018-05-06T03:42:01.476Z,36
2018-05-06T03:43:01.495Z,40
2018-05-06T03:44:01.792Z,40
2018-05-06T03:45:01.799Z,48
2018-05-06T03:46:01.256Z,52
2018-05-06T03:47:01.849Z,52
2018-05-06T03:48:01.578Z,56
2018-05-06T03:49:01.870Z,56
2018-05-06T03:50:01.673Z,60
2018-05-06T03:51:01.634Z,64
2018-05-06T03:52:01.631Z,64
2018-05-06T03:53:01.935Z,68
2018-05-06T03:54:01.970Z,76
2018-05-06T03:55:01.727Z,76
2018-05-06T03:56:02.024Z,80
2018-05-06T03:57:02.039Z,84
2018-05-06T03:58:02.024Z,84
2018-05-06T03:59:01.763Z,88
2018-05-06T04:00:02.101Z,88
2018-05-06T04:01:02.112Z,96
2018-05-06T04:02:02.132Z,96
2018-05-06T04:03:02.115Z,100
2018-05-06T04:04:01.561Z,100
2018-05-06T04:05:02.209Z,108
2018-05-06T04:06:01.975Z,108
2018-05-06T04:07:01.933Z,112
2018-05-06T04:08:01.947Z,112
2018-05-06T04:09:01.951Z,116
2018-05-06T04:10:01.961Z,120
2018-05-06T04:11:02.276Z,120
2018-05-06T04:12:02.067Z,124
2018-05-06T04:13:02.295Z,128
2018-05-06T04:14:02.320Z,132
2018-05-06T04:15:01.797Z,132
2018-05-06T04:16:02.103Z,132
2018-05-06T04:17:02.391Z,140
2018-05-06T04:18:02.410Z,140
2018-05-06T04:19:02.138Z,144
2018-05-06T04:20:02.440Z,144
2018-05-06T04:21:02.156Z,144
2018-05-06T04:22:02.453Z,148
2018-05-06T04:23:02.519Z,152
2018-05-06T04:24:02.513Z,156
2018-05-06T04:25:02.252Z,156
2018-05-06T04:26:02.273Z,160
2018-05-06T04:27:02.018Z,160
2018-05-06T04:28:02.389Z,164
2018-05-06T04:29:02.590Z,164
2018-05-06T04:30:02.627Z,168
2018-05-06T04:31:02.659Z,168
2018-05-06T04:32:02.714Z,168
2018-05-06T04:33:02.395Z,172
2018-05-06T04:34:02.688Z,172
2018-05-06T04:35:02.142Z,176
2018-05-06T04:36:02.727Z,176
2018-05-06T04:37:02.759Z,180
2018-05-06T04:38:02.749Z,180
2018-05-06T04:39:02.236Z,184
2018-05-06T04:40:02.800Z,184
2018-05-06T04:41:02.528Z,184
2018-05-06T04:42:02.551Z,188
2018-05-06T04:43:02.836Z,188
2018-05-06T04:44:02.594Z,192
2018-05-06T04:45:02.593Z,192
2018-05-06T04:46:02.626Z,196
2018-05-06T04:47:02.652Z,192
2018-05-06T04:48:02.367Z,196
2018-05-06T04:49:02.380Z,196
2018-05-06T04:50:02.696Z,200
2018-05-06T04:51:02.142Z,200
2018-05-06T04:52:03.104Z,200
2018-05-06T04:53:03.017Z,204
2018-05-06T04:54:03.070Z,204
2018-05-06T04:55:03.078Z,204
2018-05-06T04:56:03.127Z,208
2018-05-06T04:57:03.137Z,208
2018-05-06T04:58:02.877Z,212
2018-05-06T04:59:02.850Z,208
2018-05-06T05:00:02.976Z,212
2018-05-06T05:01:03.170Z,212
2018-05-06T05:02:02.932Z,216
2018-05-06T05:03:03.202Z,216
2018-05-06T05:04:03.210Z,216
2018-05-06T05:05:03.307Z,220
2018-05-06T05:06:03.012Z,216
2018-05-06T05:07:03.278Z,220
2018-05-06T05:08:03.028Z,224
2018-05-06T05:09:03.308Z,224
2018-05-06T05:10:03.327Z,224
2018-05-06T05:11:02.795Z,224
2018-05-06T05:12:03.116Z,224
2018-05-06T05:13:03.106Z,228
2018-05-06T05:14:03.388Z,228
2018-05-06T05:15:03.433Z,228
2018-05-06T05:16:03.166Z,232
2018-05-06T05:17:03.475Z,228
2018-05-06T05:18:03.193Z,232
2018-05-06T05:19:03.498Z,232
2018-05-06T05:20:03.251Z,232
2018-05-06T05:21:03.718Z,232
2018-05-06T05:22:03.530Z,236
2018-05-06T05:23:03.564Z,236
2018-05-06T05:24:02.830Z,236
2018-05-06T05:25:03.052Z,236
2018-05-06T05:26:03.353Z,236
2018-05-06T05:27:03.346Z,240
2018-05-06T05:28:03.365Z,236
2018-05-06T05:29:03.424Z,240
2018-05-06T05:30:03.698Z,240
2018-05-06T05:31:03.707Z,244
2018-05-06T05:32:03.481Z,244
2018-05-06T05:33:03.462Z,244
2018-05-06T05:34:03.518Z,248
2018-05-06T05:35:03.585Z,244
2018-05-06T05:36:03.767Z,244
2018-05-06T05:37:03.530Z,248
2018-05-06T05:38:03.579Z,248
2018-05-06T05:39:03.847Z,248
2018-05-06T05:40:03.596Z,252
2018-05-06T05:41:03.620Z,252
2018-05-06T05:42:03.928Z,248
2018-05-06T05:43:03.903Z,252
2018-05-06T05:44:03.655Z,252
2018-05-06T05:45:03.948Z,256
2018-05-06T05:46:03.679Z,256
2018-05-06T05:47:03.706Z,256
2018-05-06T05:48:04.199Z,256
2018-05-06T05:49:03.740Z,260
2018-05-06T05:50:03.501Z,256
2018-05-06T05:51:04.054Z,260
2018-05-06T05:52:03.505Z,260
2018-05-06T05:53:03.532Z,264
2018-05-06T05:54:04.113Z,260
2018-05-06T05:55:04.144Z,264
2018-05-06T05:56:04.203Z,264
2018-05-06T05:57:03.889Z,264
2018-05-06T05:58:04.180Z,264
2018-05-06T05:59:04.186Z,264
2018-05-06T06:00:04.229Z,268
2018-05-06T06:01:04.279Z,264
2018-05-06T06:02:03.987Z,268
2018-05-06T06:03:04.268Z,268
2018-05-06T06:04:04.053Z,268
2018-05-06T06:05:04.031Z,268
2018-05-06T06:06:03.770Z,268
2018-05-06T06:07:03.791Z,268
2018-05-06T06:08:04.073Z,268
2018-05-06T06:09:04.164Z,272
2018-05-06T06:10:03.824Z,272
2018-05-06T06:11:04.111Z,272
2018-05-06T06:12:04.428Z,272
2018-05-06T06:13:04.179Z,272
2018-05-06T06:14:04.171Z,272
2018-05-06T06:15:03.927Z,276
2018-05-06T06:16:03.936Z,276
2018-05-06T06:17:04.513Z,276
2018-05-06T06:18:04.273Z,276
2018-05-06T06:19:04.563Z,280
2018-05-06T06:20:04.296Z,280
2018-05-06T06:21:03.763Z,276
2018-05-06T06:22:04.628Z,276
2018-05-06T06:23:04.062Z,280
2018-05-06T06:24:04.657Z,280
2018-05-06T06:25:04.380Z,280
2018-05-06T06:26:04.404Z,284
2018-05-06T06:27:04.734Z,284
2018-05-06T06:28:04.445Z,284
2018-05-06T06:29:04.467Z,284
2018-05-06T06:30:04.744Z,284
2018-05-06T06:31:04.546Z,284
2018-05-06T06:32:03.949Z,288
2018-05-06T06:33:04.805Z,288
2018-05-06T06:34:04.818Z,288
2018-05-06T06:35:04.280Z,292
2018-05-06T06:36:04.618Z,288
2018-05-06T06:37:04.878Z,292
2018-05-06T06:38:04.913Z,292
2018-05-06T06:39:04.910Z,292
2018-05-06T06:40:04.389Z,292
2018-05-06T06:41:04.735Z,292
2018-05-06T06:42:04.704Z,292
2018-05-06T06:43:04.417Z,292
2018-05-06T06:44:04.448Z,296
2018-05-06T06:45:04.749Z,296
2018-05-06T06:46:04.813Z,296
2018-05-06T06:47:05.056Z,300
2018-05-06T06:48:04.916Z,300
2018-05-06T06:49:04.807Z,296
2018-05-06T06:50:05.129Z,300
2018-05-06T06:51:05.142Z,300
2018-05-06T06:52:04.587Z,300
2018-05-06T06:53:04.889Z,300
2018-05-06T06:54:04.640Z,304
2018-05-06T06:55:04.633Z,304
2018-05-06T06:56:05.242Z,304
2018-05-06T06:57:04.984Z,304
2018-05-06T06:58:04.979Z,304
2018-05-06T06:59:05.008Z,308
2018-05-06T07:00:05.013Z,304
2018-05-06T07:01:05.034Z,308
2018-05-06T07:02:05.091Z,308
2018-05-06T07:03:05.350Z,308
2018-05-06T07:04:05.094Z,312
2018-05-06T07:05:05.453Z,308
2018-05-06T07:06:05.253Z,308
2018-05-06T07:07:05.425Z,312
2018-05-06T07:08:05.169Z,312
2018-05-06T07:09:04.626Z,312
2018-05-06T07:10:05.212Z,312
2018-05-06T07:11:05.520Z,312
2018-05-06T07:12:05.241Z,312
2018-05-06T07:13:05.245Z,312
2018-05-06T07:14:05.560Z,312
2018-05-06T07:15:05.592Z,316
2018-05-06T07:16:05.334Z,316
2018-05-06T07:17:05.619Z,316
2018-05-06T07:18:05.094Z,320
2018-05-06T07:19:05.353Z,316
2018-05-06T07:20:05.680Z,320
2018-05-06T07:21:05.405Z,320
2018-05-06T07:22:05.466Z,320
2018-05-06T07:23:05.441Z,320
2018-05-06T07:24:05.461Z,320
2018-05-06T07:25:05.775Z,324
2018-05-06T07:26:05.515Z,324
2018-05-06T07:27:05.546Z,320
2018-05-06T07:28:05.550Z,324
2018-05-06T07:29:05.817Z,328
2018-05-06T07:30:06.122Z,324
2018-05-06T07:31:05.327Z,328
2018-05-06T07:32:05.605Z,328
2018-05-06T07:33:05.653Z,324
2018-05-06T07:34:05.924Z,324
2018-05-06T07:35:05.959Z,328
2018-05-06T07:36:05.449Z,324
2018-05-06T07:37:05.986Z,328
2018-05-06T07:38:05.486Z,328
2018-05-06T07:39:06.047Z,332
2018-05-06T07:40:05.781Z,332
2018-05-06T07:41:06.067Z,332
2018-05-06T07:42:05.853Z,332
2018-05-06T07:43:06.127Z,336
2018-05-06T07:44:05.868Z,340
2018-05-06T07:45:05.879Z,344
2018-05-06T07:46:06.170Z,352
2018-05-06T07:47:05.636Z,356
2018-05-06T07:48:06.226Z,360
2018-05-06T07:49:06.510Z,360
2018-05-06T07:50:06.269Z,364
2018-05-06T07:51:05.995Z,368
2018-05-06T07:52:05.725Z,368
2018-05-06T07:53:05.751Z,376
2018-05-06T07:54:06.353Z,380
2018-05-06T07:55:06.089Z,380
2018-05-06T07:56:06.087Z,384
2018-05-06T07:57:05.807Z,388
2018-05-06T07:58:06.127Z,396
2018-05-06T07:59:06.142Z,396
2018-05-06T08:00:06.167Z,400
2018-05-06T08:01:06.188Z,404
2018-05-06T08:02:06.200Z,404
2018-05-06T08:03:06.519Z,408
2018-05-06T08:04:06.259Z,412
2018-05-06T08:05:06.261Z,416
2018-05-06T08:06:06.293Z,420
2018-05-06T08:07:06.042Z,424
2018-05-06T08:08:06.337Z,428
2018-05-06T08:09:06.668Z,432
2018-05-06T08:10:06.654Z,436
2018-05-06T08:11:05.822Z,440
2018-05-06T08:12:06.687Z,440
2018-05-06T08:13:06.431Z,448
2018-05-06T08:14:06.463Z,448
2018-05-06T08:15:06.760Z,456
2018-05-06T08:16:06.762Z,460
2018-05-06T08:17:05.952Z,468
2018-05-06T08:18:06.249Z,472
2018-05-06T08:19:06.244Z,484
2018-05-06T08:20:06.854Z,484
2018-05-06T08:21:06.570Z,484
2018-05-06T08:22:06.643Z,492
2018-05-06T08:23:06.913Z,496
2018-05-06T08:24:06.658Z,496
2018-05-06T08:25:06.954Z,508
2018-05-06T08:26:06.417Z,512
2018-05-06T08:27:06.726Z,516
2018-05-06T08:28:06.442Z,524
2018-05-06T08:29:06.755Z,532
2018-05-06T08:30:06.491Z,536
2018-05-06T08:31:07.257Z,540
2018-05-06T08:32:06.840Z,548
2018-05-06T08:33:06.550Z,552
2018-05-06T08:34:06.853Z,556
2018-05-06T08:35:06.875Z,564
2018-05-06T08:36:07.160Z,564
2018-05-06T08:37:06.926Z,572
2018-05-06T08:38:07.228Z,580
2018-05-06T08:39:07.264Z,584
2018-05-06T08:40:07.005Z,592
2018-05-06T08:41:07.015Z,596
2018-05-06T08:42:07.073Z,604
2018-05-06T08:43:06.791Z,612
2018-05-06T08:44:07.059Z,612
2018-05-06T08:45:07.379Z,612
2018-05-06T08:46:07.095Z,620
2018-05-06T08:47:07.423Z,628
2018-05-06T08:48:07.160Z,632
2018-05-06T08:49:06.917Z,636
2018-05-06T08:50:06.938Z,636
2018-05-06T08:51:06.956Z,644
2018-05-06T08:52:07.005Z,652
2018-05-06T08:53:07.285Z,664
2018-05-06T08:54:07.298Z,664
2018-05-06T08:55:07.653Z,676
2018-05-06T08:56:07.065Z,680
2018-05-06T08:57:07.625Z,688
2018-05-06T08:58:07.663Z,692
2018-05-06T08:59:07.419Z,696
2018-05-06T09:00:07.427Z,704
2018-05-06T09:01:07.454Z,708
2018-05-06T09:02:07.719Z,716
2018-05-06T09:03:07.192Z,720
2018-05-06T09:04:07.818Z,724
2018-05-06T09:05:07.257Z,736
2018-05-06T09:06:07.573Z,740
2018-05-06T09:07:07.878Z,748
2018-05-06T09:08:07.885Z,752
2018-05-06T09:09:07.062Z,760
2018-05-06T09:10:07.662Z,764
2018-05-06T09:11:07.484Z,776
2018-05-06T09:12:07.687Z,784
2018-05-06T09:13:07.727Z,788
2018-05-06T09:14:07.709Z,792
2018-05-06T09:15:07.744Z,800
2018-05-06T09:16:08.068Z,800
2018-05-06T09:17:07.801Z,808
2018-05-06T09:18:08.104Z,820
2018-05-06T09:19:08.120Z,828
2018-05-06T09:20:07.884Z,832
2018-05-06T09:21:08.177Z,836
2018-05-06T09:22:08.202Z,844
2018-05-06T09:23:07.633Z,856
2018-05-06T09:24:08.248Z,864
2018-05-06T09:25:08.279Z,872
2018-05-06T09:26:08.018Z,880
2018-05-06T09:27:08.301Z,872
2018-05-06T09:28:08.320Z,884
2018-05-06T09:29:08.094Z,896
2018-05-06T09:30:08.115Z,900
2018-05-06T09:31:08.396Z,908
2018-05-06T09:32:07.610Z,908
2018-05-06T09:33:08.451Z,916
2018-05-06T09:34:08.470Z,928
2018-05-06T09:35:07.953Z,936
2018-05-06T09:36:08.213Z,944
2018-05-06T09:37:08.533Z,952
2018-05-06T09:38:08.592Z,960
2018-05-06T09:39:08.001Z,972
2018-05-06T09:40:08.611Z,976
2018-05-06T09:41:08.081Z,976
2018-05-06T09:42:08.659Z,996
2018-05-06T09:43:08.135Z,1000
2018-05-06T09:44:08.412Z,1004
2018-05-06T09:45:08.739Z,1008
2018-05-06T09:46:08.492Z,1012
2018-05-06T09:47:08.842Z,1024
2018-05-06T09:48:08.507Z,1032
2018-05-06T09:49:08.817Z,1036
2018-05-06T09:50:08.564Z,1044
2018-05-06T09:51:08.297Z,1036
2018-05-06T09:52:08.661Z,1052
2018-05-06T09:53:08.632Z,1056
2018-05-06T09:54:08.664Z,1068
2018-05-06T09:55:08.393Z,1088
2018-05-06T09:56:08.140Z,1092
2018-05-06T09:57:08.726Z,1096
2018-05-06T09:58:08.772Z,1096
2018-05-06T09:59:09.087Z,1096
2018-05-06T10:00:08.530Z,1100
2018-05-06T10:01:09.127Z,1116
2018-05-06T10:02:09.141Z,1124
2018-05-06T10:03:08.604Z,1132
2018-05-06T10:04:09.186Z,1136
2018-05-06T10:05:08.930Z,1136
2018-05-06T10:06:09.241Z,1152
2018-05-06T10:07:08.985Z,1156
2018-05-06T10:08:09.080Z,1164
2018-05-06T10:09:09.057Z,1180
2018-05-06T10:10:09.051Z,1192
2018-05-06T10:11:09.073Z,1192
2018-05-06T10:12:09.103Z,1200
2018-05-06T10:13:08.571Z,1204
2018-05-06T10:14:09.147Z,1220
2018-05-06T10:15:08.881Z,1232
2018-05-06T10:16:09.216Z,1244
2018-05-06T10:17:08.954Z,1252
2018-05-06T10:18:09.536Z,1272
2018-05-06T10:19:09.268Z,1284
2018-05-06T10:20:09.285Z,1288
2018-05-06T10:21:09.615Z,1296
2018-05-06T10:22:09.615Z,1300
2018-05-06T10:23:09.716Z,1308
2018-05-06T10:24:09.689Z,1324
2018-05-06T10:25:09.727Z,1344
2018-05-06T10:26:09.258Z,1360
2018-05-06T10:27:09.489Z,1360
2018-05-06T10:28:10.184Z,1368
2018-05-06T10:29:09.549Z,1388
2018-05-06T10:30:09.845Z,1388
2018-05-06T10:31:09.300Z,1396
2018-05-06T10:32:09.913Z,1408
2018-05-06T10:33:09.630Z,1408
2018-05-06T10:34:09.669Z,1420
2018-05-06T10:35:09.984Z,1416
2018-05-06T10:36:09.140Z,1424
2018-05-06T10:37:09.998Z,1444
2018-05-06T10:38:10.138Z,1448
2018-05-06T10:39:09.234Z,1460
2018-05-06T10:40:09.819Z,1472
2018-05-06T10:41:09.298Z,1484
2018-05-06T10:42:10.160Z,1488
2018-05-06T10:43:09.873Z,1500
2018-05-06T10:44:10.608Z,1520
2018-05-06T10:45:10.232Z,1524
2018-05-06T10:46:09.411Z,1532
2018-05-06T10:47:10.207Z,1544
2018-05-06T10:48:09.756Z,1556
2018-05-06T10:49:10.371Z,1568
2018-05-06T10:50:10.097Z,1584
2018-05-06T10:51:10.410Z,1588
2018-05-06T10:52:09.853Z,1596
2018-05-06T10:53:10.167Z,1600
2018-05-06T10:54:09.904Z,1608
2018-05-06T10:55:09.930Z,1616
2018-05-06T10:56:10.520Z,1636
2018-05-06T10:57:10.551Z,1628
2018-05-06T10:58:10.621Z,1640
2018-05-06T10:59:10.048Z,1652
2018-05-06T11:00:09.794Z,1644
2018-05-06T11:01:10.372Z,1664
2018-05-06T11:02:10.705Z,1680
2018-05-06T11:03:09.904Z,1684
2018-05-06T11:04:10.736Z,1684
2018-05-06T11:05:10.781Z,1680
2018-05-06T11:06:10.488Z,1680
2018-05-06T11:07:10.552Z,1684
2018-05-06T11:08:10.572Z,1684
2018-05-06T11:09:10.592Z,1672
2018-05-06T11:10:11.219Z,1684
2018-05-06T11:11:10.649Z,1696
2018-05-06T11:12:10.376Z,1704
2018-05-06T11:13:10.734Z,1712
2018-05-06T11:14:10.422Z,1724
2018-05-06T11:15:11.027Z,1732
2018-05-06T11:16:10.799Z,1736
2018-05-06T11:17:11.110Z,1732
2018-05-06T11:18:10.876Z,1728
2018-05-06T11:19:10.581Z,1740
2018-05-06T11:20:10.875Z,1740
2018-05-06T11:21:10.902Z,1752
2018-05-06T11:22:10.940Z,1744
2018-05-06T11:23:11.010Z,1764
2018-05-06T11:24:11.287Z,1780
2018-05-06T11:25:11.300Z,1788
2018-05-06T11:26:11.070Z,1788
2018-05-06T11:27:11.050Z,1800
2018-05-06T11:28:10.843Z,1808
2018-05-06T11:29:11.138Z,1816
2018-05-06T11:30:11.443Z,1812
2018-05-06T11:31:11.221Z,1832
2018-05-06T11:32:11.237Z,1848
2018-05-06T11:33:11.295Z,1856
2018-05-06T11:34:11.561Z,1864
2018-05-06T11:35:11.314Z,1868
2018-05-06T11:36:11.054Z,1880
2018-05-06T11:37:11.639Z,1880
2018-05-06T11:38:10.867Z,1876
2018-05-06T11:39:11.693Z,1872
2018-05-06T11:40:11.228Z,1876
2018-05-06T11:41:11.599Z,1884
2018-05-06T11:42:11.502Z,1904
2018-05-06T11:43:11.577Z,1920
2018-05-06T11:44:11.851Z,1924
2018-05-06T11:45:11.566Z,1928
2018-05-06T11:46:11.885Z,1948
2018-05-06T11:47:11.647Z,1964
2018-05-06T11:48:11.917Z,1960
2018-05-06T11:49:11.135Z,1960
2018-05-06T11:50:12.002Z,1960
2018-05-06T11:51:12.018Z,1976
2018-05-06T11:52:12.050Z,1984
2018-05-06T11:53:11.838Z,2000
2018-05-06T11:54:12.131Z,2004
2018-05-06T11:55:11.588Z,1992
2018-05-06T11:56:12.255Z,1988
2018-05-06T11:57:11.648Z,1992
2018-05-06T11:58:11.934Z,2000
2018-05-06T11:59:12.239Z,2008
2018-05-06T12:00:12.027Z,2032
2018-05-06T12:01:12.347Z,2040
2018-05-06T12:02:12.385Z,2052
2018-05-06T12:03:12.384Z,2056
2018-05-06T12:04:12.154Z,2040
2018-05-06T12:05:11.877Z,2048
2018-05-06T12:06:12.469Z,2036
2018-05-06T12:07:12.486Z,2048
2018-05-06T12:08:12.239Z,2052
2018-05-06T12:09:12.268Z,2052
2018-05-06T12:10:12.796Z,2052
2018-05-06T12:11:12.350Z,2060
2018-05-06T12:12:12.126Z,2068
2018-05-06T12:13:12.685Z,2060
2018-05-06T12:14:12.402Z,2068
2018-05-06T12:15:12.460Z,2072
2018-05-06T12:16:12.190Z,2072
2018-05-06T12:17:12.505Z,2068
2018-05-06T12:18:12.811Z,2076
2018-05-06T12:19:12.922Z,2072
2018-05-06T12:20:12.866Z,2064
2018-05-06T12:21:12.599Z,2060
2018-05-06T12:22:12.384Z,2052
2018-05-06T12:23:12.957Z,2060
2018-05-06T12:24:12.853Z,2064
2018-05-06T12:25:13.019Z,2076
2018-05-06T12:26:13.032Z,2084
2018-05-06T12:27:12.529Z,2080
2018-05-06T12:28:12.855Z,2060
2018-05-06T12:29:13.166Z,2056
2018-05-06T12:30:13.168Z,2064
2018-05-06T12:31:12.934Z,2060
2018-05-06T12:32:12.953Z,2044
2018-05-06T12:33:13.268Z,2040
2018-05-06T12:34:13.008Z,2040
2018-05-06T12:35:13.054Z,2048
2018-05-06T12:36:12.794Z,2048
2018-05-06T12:37:13.380Z,2048
2018-05-06T12:38:13.131Z,2056
2018-05-06T12:39:13.154Z,2064
2018-05-06T12:40:12.897Z,2048
2018-05-06T12:41:13.231Z,2044
2018-05-06T12:42:13.219Z,2040
2018-05-06T12:43:13.733Z,2040
2018-05-06T12:44:13.009Z,2044
2018-05-06T12:45:13.643Z,2036
2018-05-06T12:46:13.085Z,2032
2018-05-06T12:47:13.110Z,2036
2018-05-06T12:48:13.711Z,2036
2018-05-06T12:49:13.165Z,2036
2018-05-06T12:50:13.772Z,2028
2018-05-06T12:51:13.545Z,2024
2018-05-06T12:52:13.817Z,2024
2018-05-06T12:53:13.292Z,2024
2018-05-06T12:54:13.876Z,2028
2018-05-06T12:55:13.726Z,2040
2018-05-06T12:56:13.684Z,2036
2018-05-06T12:57:13.410Z,2032
2018-05-06T12:58:13.989Z,2032
2018-05-06T12:59:14.030Z,2044
2018-05-06T13:00:14.066Z,2048
2018-05-06T13:01:14.089Z,2064
2018-05-06T13:02:13.855Z,2068
2018-05-06T13:03:14.164Z,2080
2018-05-06T13:04:13.910Z,2096
2018-05-06T13:05:13.944Z,2108
2018-05-06T13:06:13.948Z,2120
2018-05-06T13:07:13.729Z,2124
2018-05-06T13:08:14.298Z,2128
2018-05-06T13:09:14.345Z,2136
2018-05-06T13:10:14.364Z,2152
2018-05-06T13:11:14.126Z,2164
2018-05-06T13:12:14.166Z,2172
2018-05-06T13:13:14.473Z,2184
2018-05-06T13:14:13.976Z,2196
2018-05-06T13:15:14.251Z,2196
2018-05-06T13:16:14.269Z,2196
2018-05-06T13:17:14.311Z,2216
2018-05-06T13:18:14.617Z,2216
2018-05-06T13:19:14.076Z,2212
2018-05-06T13:20:14.666Z,2232
2018-05-06T13:21:14.138Z,2256
2018-05-06T13:22:14.454Z,2252
2018-05-06T13:23:14.769Z,2260
2018-05-06T13:24:14.770Z,2264
2018-05-06T13:25:14.844Z,2284
2018-05-06T13:26:14.586Z,2296
2018-05-06T13:27:14.604Z,2312
2018-05-06T13:28:14.907Z,2312
2018-05-06T13:29:14.955Z,2328
2018-05-06T13:30:14.431Z,2340
2018-05-06T13:31:14.740Z,2352
2018-05-06T13:32:15.036Z,2360
2018-05-06T13:33:14.812Z,2364
2018-05-06T13:34:14.241Z,2388
2018-05-06T13:35:15.127Z,2400
2018-05-06T13:36:15.156Z,2404
2018-05-06T13:37:14.922Z,2420
2018-05-06T13:38:15.193Z,2444
2018-05-06T13:39:14.970Z,2468
2018-05-06T13:40:15.271Z,2484
2018-05-06T13:41:15.027Z,2508
2018-05-06T13:42:15.350Z,2520
2018-05-06T13:43:14.860Z,2544
2018-05-06T13:44:15.392Z,2572
2018-05-06T13:45:15.157Z,2596
2018-05-06T13:46:15.182Z,2616
2018-05-06T13:47:14.924Z,2648
2018-05-06T13:48:15.583Z,2664
2018-05-06T13:49:15.666Z,2692
2018-05-06T13:50:16.112Z,2720
2018-05-06T13:51:15.328Z,2728
2018-05-06T13:52:15.072Z,2756
2018-05-06T13:53:15.719Z,2796